Terminal Aerodrome Forecast
Issued by NWS Louisville, KY

Home | Current Version | Previous Version | Text Only | Print | Product List | Glossary On
Versions: 1 2 3 4 5 6 7 8 9 10 11 12 13 14 15 16 17 18 19 20 21 22 23
000
FTUS43 KLMK 280659 AAA
TAFSDF
TAF AMD
KSDF 280659Z 2807/2912 VRB05KT 6SM -SHRA BR FEW015 BKN040 BKN070
      TEMPO 2807/2809 3SM -TSRA BR BKN015CB
     FM280900 VRB05KT P6SM VCSH SCT012 BKN025
      TEMPO 2814/2818 2SM SHRA BR BKN012
     FM282000 22004KT P6SM VCSH SCT015 BKN030
     FM290000 VRB03KT P6SM SCT035 BKN050=

USA.gov is the U.S. government's official web portal to all federal, state and local government web resources and services.